sensor_id;sensor_type;location;lat;lon;timestamp;P1;durP1;ratioP1;P2;durP2;ratioP2
3004;SDS011;1512;51.486;6.610;2023-01-19T00:02:37;8.67;;;7.80;;
3004;SDS011;1512;51.486;6.610;2023-01-19T00:06:45;9.20;;;7.87;;
3004;SDS011;1512;51.486;6.610;2023-01-19T00:10:54;10.00;;;7.77;;
3004;SDS011;1512;51.486;6.610;2023-01-19T00:15:03;9.53;;;7.07;;
3004;SDS011;1512;51.486;6.610;2023-01-19T00:19:21;13.10;;;6.80;;
3004;SDS011;1512;51.486;6.610;2023-01-19T00:23:30;11.20;;;8.07;;
3004;SDS011;1512;51.486;6.610;2023-01-19T00:27:38;7.80;;;6.40;;
3004;SDS011;1512;51.486;6.610;2023-01-19T00:31:47;13.13;;;7.67;;
3004;SDS011;1512;51.486;6.610;2023-01-19T00:35:56;8.87;;;6.93;;
3004;SDS011;1512;51.486;6.610;2023-01-19T00:40:05;7.43;;;5.43;;
3004;SDS011;1512;51.486;6.610;2023-01-19T00:44:15;11.80;;;8.27;;
3004;SDS011;1512;51.486;6.610;2023-01-19T00:52:52;13.03;;;8.43;;
3004;SDS011;1512;51.486;6.610;2023-01-19T00:57:02;7.93;;;7.13;;
3004;SDS011;1512;51.486;6.610;2023-01-19T01:01:10;9.50;;;6.57;;
3004;SDS011;1512;51.486;6.610;2023-01-19T01:05:19;7.63;;;6.47;;
3004;SDS011;1512;51.486;6.610;2023-01-19T01:09:28;9.17;;;7.20;;
3004;SDS011;1512;51.486;6.610;2023-01-19T01:13:37;9.90;;;5.37;;
3004;SDS011;1512;51.486;6.610;2023-01-19T01:17:46;11.23;;;7.47;;
3004;SDS011;1512;51.486;6.610;2023-01-19T01:21:55;10.20;;;7.63;;
3004;SDS011;1512;51.486;6.610;2023-01-19T01:26:04;10.03;;;7.40;;
3004;SDS011;1512;51.486;6.610;2023-01-19T01:30:13;13.53;;;7.47;;
3004;SDS011;1512;51.486;6.610;2023-01-19T01:34:22;15.10;;;8.90;;
3004;SDS011;1512;51.486;6.610;2023-01-19T01:38:31;9.63;;;6.77;;
3004;SDS011;1512;51.486;6.610;2023-01-19T01:42:40;12.50;;;8.10;;
3004;SDS011;1512;51.486;6.610;2023-01-19T01:47:09;7.80;;;6.67;;
3004;SDS011;1512;51.486;6.610;2023-01-19T01:51:23;15.17;;;7.73;;
3004;SDS011;1512;51.486;6.610;2023-01-19T01:55:32;8.40;;;6.37;;
3004;SDS011;1512;51.486;6.610;2023-01-19T01:59:44;15.87;;;8.50;;
3004;SDS011;1512;51.486;6.610;2023-01-19T02:03:55;12.97;;;8.43;;
3004;SDS011;1512;51.486;6.610;2023-01-19T02:08:15;17.67;;;8.00;;
3004;SDS011;1512;51.486;6.610;2023-01-19T02:12:40;11.60;;;8.57;;
3004;SDS011;1512;51.486;6.610;2023-01-19T02:17:07;13.67;;;8.47;;
3004;SDS011;1512;51.486;6.610;2023-01-19T02:29:59;15.00;;;8.43;;
3004;SDS011;1512;51.486;6.610;2023-01-19T02:34:10;12.00;;;8.60;;
3004;SDS011;1512;51.486;6.610;2023-01-19T02:42:51;8.67;;;7.77;;
3004;SDS011;1512;51.486;6.610;2023-01-19T02:47:03;9.00;;;7.40;;
3004;SDS011;1512;51.486;6.610;2023-01-19T02:51:16;8.00;;;6.70;;
3004;SDS011;1512;51.486;6.610;2023-01-19T02:55:30;11.25;;;6.50;;
3004;SDS011;1512;51.486;6.610;2023-01-19T03:03:53;11.17;;;7.40;;
3004;SDS011;1512;51.486;6.610;2023-01-19T03:08:14;10.40;;;5.70;;
3004;SDS011;1512;51.486;6.610;2023-01-19T03:12:44;13.13;;;6.40;;
3004;SDS011;1512;51.486;6.610;2023-01-19T03:16:58;12.63;;;8.33;;
3004;SDS011;1512;51.486;6.610;2023-01-19T03:21:09;13.33;;;8.13;;
3004;SDS011;1512;51.486;6.610;2023-01-19T03:25:20;12.87;;;7.60;;
3004;SDS011;1512;51.486;6.610;2023-01-19T03:29:32;7.80;;;7.00;;
3004;SDS011;1512;51.486;6.610;2023-01-19T03:33:45;14.93;;;8.30;;
3004;SDS011;1512;51.486;6.610;2023-01-19T03:37:54;7.97;;;7.03;;
3004;SDS011;1512;51.486;6.610;2023-01-19T03:42:05;11.47;;;7.80;;
3004;SDS011;1512;51.486;6.610;2023-01-19T03:46:16;11.27;;;7.27;;
3004;SDS011;1512;51.486;6.610;2023-01-19T03:50:28;14.43;;;9.20;;
3004;SDS011;1512;51.486;6.610;2023-01-19T03:54:37;12.80;;;7.93;;
3004;SDS011;1512;51.486;6.610;2023-01-19T03:58:47;11.63;;;8.20;;
3004;SDS011;1512;51.486;6.610;2023-01-19T04:02:55;8.10;;;6.67;;
3004;SDS011;1512;51.486;6.610;2023-01-19T04:07:05;8.53;;;7.47;;
3004;SDS011;1512;51.486;6.610;2023-01-19T04:11:14;11.23;;;6.43;;
3004;SDS011;1512;51.486;6.610;2023-01-19T04:15:23;9.63;;;6.77;;
3004;SDS011;1512;51.486;6.610;2023-01-19T04:19:32;11.17;;;7.47;;
3004;SDS011;1512;51.486;6.610;2023-01-19T04:23:41;10.40;;;6.40;;
3004;SDS011;1512;51.486;6.610;2023-01-19T04:32:19;12.43;;;8.00;;
3004;SDS011;1512;51.486;6.610;2023-01-19T04:36:28;11.07;;;7.87;;
3004;SDS011;1512;51.486;6.610;2023-01-19T04:58:29;12.27;;;6.30;;
3004;SDS011;1512;51.486;6.610;2023-01-19T05:02:38;11.63;;;7.67;;
3004;SDS011;1512;51.486;6.610;2023-01-19T05:11:16;7.20;;;5.80;;
3004;SDS011;1512;51.486;6.610;2023-01-19T05:15:25;11.57;;;6.47;;
3004;SDS011;1512;51.486;6.610;2023-01-19T05:24:01;8.97;;;5.83;;
3004;SDS011;1512;51.486;6.610;2023-01-19T05:28:10;9.60;;;5.53;;
3004;SDS011;1512;51.486;6.610;2023-01-19T05:32:19;9.07;;;5.53;;
3004;SDS011;1512;51.486;6.610;2023-01-19T05:36:27;8.73;;;6.30;;
3004;SDS011;1512;51.486;6.610;2023-01-19T05:40:37;6.80;;;5.30;;
3004;SDS011;1512;51.486;6.610;2023-01-19T05:44:46;5.93;;;4.50;;
3004;SDS011;1512;51.486;6.610;2023-01-19T05:48:55;4.23;;;3.73;;
3004;SDS011;1512;51.486;6.610;2023-01-19T05:53:04;5.53;;;4.63;;
3004;SDS011;1512;51.486;6.610;2023-01-19T05:57:12;6.27;;;5.13;;
3004;SDS011;1512;51.486;6.610;2023-01-19T06:01:21;5.00;;;3.87;;
3004;SDS011;1512;51.486;6.610;2023-01-19T06:05:30;6.43;;;4.97;;
3004;SDS011;1512;51.486;6.610;2023-01-19T06:09:39;6.23;;;5.00;;
3004;SDS011;1512;51.486;6.610;2023-01-19T06:13:48;8.50;;;5.67;;
3004;SDS011;1512;51.486;6.610;2023-01-19T06:17:58;6.50;;;5.00;;
3004;SDS011;1512;51.486;6.610;2023-01-19T06:26:36;6.40;;;4.90;;
3004;SDS011;1512;51.486;6.610;2023-01-19T06:30:47;4.47;;;4.07;;
3004;SDS011;1512;51.486;6.610;2023-01-19T06:34:57;4.40;;;3.80;;
3004;SDS011;1512;51.486;6.610;2023-01-19T06:39:05;5.17;;;4.13;;
3004;SDS011;1512;51.486;6.610;2023-01-19T06:43:16;4.43;;;3.93;;
3004;SDS011;1512;51.486;6.610;2023-01-19T06:47:26;4.67;;;4.20;;
3004;SDS011;1512;51.486;6.610;2023-01-19T06:51:34;5.23;;;4.73;;
3004;SDS011;1512;51.486;6.610;2023-01-19T06:55:43;8.40;;;4.10;;
3004;SDS011;1512;51.486;6.610;2023-01-19T06:59:51;5.60;;;5.10;;
3004;SDS011;1512;51.486;6.610;2023-01-19T07:04:00;4.63;;;4.20;;
3004;SDS011;1512;51.486;6.610;2023-01-19T07:08:09;6.13;;;4.50;;
3004;SDS011;1512;51.486;6.610;2023-01-19T07:12:17;6.80;;;5.57;;
3004;SDS011;1512;51.486;6.610;2023-01-19T07:16:26;5.40;;;4.90;;
3004;SDS011;1512;51.486;6.610;2023-01-19T07:25:04;9.30;;;5.50;;
3004;SDS011;1512;51.486;6.610;2023-01-19T07:29:13;6.43;;;5.60;;
3004;SDS011;1512;51.486;6.610;2023-01-19T07:33:21;7.23;;;5.10;;
3004;SDS011;1512;51.486;6.610;2023-01-19T07:37:34;8.03;;;5.97;;
3004;SDS011;1512;51.486;6.610;2023-01-19T07:41:42;7.90;;;6.30;;
3004;SDS011;1512;51.486;6.610;2023-01-19T07:45:51;7.50;;;5.67;;
3004;SDS011;1512;51.486;6.610;2023-01-19T07:50:06;11.33;;;7.30;;
3004;SDS011;1512;51.486;6.610;2023-01-19T07:54:16;13.47;;;7.47;;
3004;SDS011;1512;51.486;6.610;2023-01-19T07:58:24;8.93;;;5.37;;
3004;SDS011;1512;51.486;6.610;2023-01-19T08:02:33;7.90;;;6.10;;
3004;SDS011;1512;51.486;6.610;2023-01-19T08:06:42;8.10;;;7.07;;
3004;SDS011;1512;51.486;6.610;2023-01-19T08:10:53;13.23;;;7.03;;
3004;SDS011;1512;51.486;6.610;2023-01-19T08:15:01;9.30;;;6.53;;
3004;SDS011;1512;51.486;6.610;2023-01-19T08:23:38;12.93;;;7.73;;
3004;SDS011;1512;51.486;6.610;2023-01-19T08:27:52;8.07;;;7.27;;
3004;SDS011;1512;51.486;6.610;2023-01-19T08:32:01;8.83;;;7.10;;
3004;SDS011;1512;51.486;6.610;2023-01-19T08:36:10;9.00;;;7.37;;
3004;SDS011;1512;51.486;6.610;2023-01-19T08:40:19;8.90;;;6.80;;
3004;SDS011;1512;51.486;6.610;2023-01-19T08:44:28;10.80;;;7.23;;
3004;SDS011;1512;51.486;6.610;2023-01-19T08:48:37;10.63;;;6.77;;
3004;SDS011;1512;51.486;6.610;2023-01-19T08:52:46;11.17;;;7.70;;
3004;SDS011;1512;51.486;6.610;2023-01-19T08:56:54;11.40;;;7.30;;
3004;SDS011;1512;51.486;6.610;2023-01-19T09:01:03;6.13;;;5.53;;
3004;SDS011;1512;51.486;6.610;2023-01-19T09:05:12;12.73;;;9.00;;
3004;SDS011;1512;51.486;6.610;2023-01-19T09:09:21;18.67;;;8.27;;
3004;SDS011;1512;51.486;6.610;2023-01-19T09:13:30;14.80;;;7.77;;
3004;SDS011;1512;51.486;6.610;2023-01-19T09:17:39;10.57;;;7.87;;
3004;SDS011;1512;51.486;6.610;2023-01-19T09:21:48;9.73;;;8.00;;
3004;SDS011;1512;51.486;6.610;2023-01-19T09:25:57;18.20;;;8.30;;
3004;SDS011;1512;51.486;6.610;2023-01-19T09:30:07;12.80;;;9.17;;
3004;SDS011;1512;51.486;6.610;2023-01-19T09:34:17;11.10;;;8.77;;
3004;SDS011;1512;51.486;6.610;2023-01-19T09:38:26;19.33;;;10.63;;
3004;SDS011;1512;51.486;6.610;2023-01-19T09:42:43;10.67;;;7.87;;
3004;SDS011;1512;51.486;6.610;2023-01-19T09:46:57;12.07;;;8.90;;
3004;SDS011;1512;51.486;6.610;2023-01-19T09:51:14;15.37;;;10.80;;
3004;SDS011;1512;51.486;6.610;2023-01-19T09:55:26;15.30;;;10.13;;
3004;SDS011;1512;51.486;6.610;2023-01-19T09:59:36;21.70;;;10.53;;
3004;SDS011;1512;51.486;6.610;2023-01-19T10:03:45;14.20;;;9.17;;
3004;SDS011;1512;51.486;6.610;2023-01-19T10:07:57;19.63;;;11.03;;
3004;SDS011;1512;51.486;6.610;2023-01-19T10:16:47;18.33;;;9.90;;
3004;SDS011;1512;51.486;6.610;2023-01-19T10:20:53;18.50;;;11.27;;
3004;SDS011;1512;51.486;6.610;2023-01-19T10:25:19;33.53;;;11.70;;
3004;SDS011;1512;51.486;6.610;2023-01-19T10:29:31;17.50;;;9.70;;
3004;SDS011;1512;51.486;6.610;2023-01-19T10:33:45;15.77;;;9.60;;
3004;SDS011;1512;51.486;6.610;2023-01-19T10:37:57;24.33;;;14.03;;
3004;SDS011;1512;51.486;6.610;2023-01-19T10:42:09;23.63;;;13.07;;
3004;SDS011;1512;51.486;6.610;2023-01-19T10:46:26;16.77;;;10.30;;
3004;SDS011;1512;51.486;6.610;2023-01-19T10:51:01;20.00;;;11.77;;
3004;SDS011;1512;51.486;6.610;2023-01-19T10:55:21;26.40;;;11.43;;
3004;SDS011;1512;51.486;6.610;2023-01-19T10:59:31;19.70;;;11.80;;
3004;SDS011;1512;51.486;6.610;2023-01-19T11:03:47;13.40;;;9.83;;
3004;SDS011;1512;51.486;6.610;2023-01-19T11:07:56;19.13;;;11.70;;
3004;SDS011;1512;51.486;6.610;2023-01-19T11:12:04;24.07;;;11.87;;
3004;SDS011;1512;51.486;6.610;2023-01-19T11:16:24;25.50;;;13.77;;
3004;SDS011;1512;51.486;6.610;2023-01-19T11:20:57;22.00;;;12.90;;
3004;SDS011;1512;51.486;6.610;2023-01-19T11:24:58;19.17;;;12.90;;
3004;SDS011;1512;51.486;6.610;2023-01-19T11:29:24;22.60;;;12.60;;
3004;SDS011;1512;51.486;6.610;2023-01-19T11:42:27;24.30;;;14.50;;
3004;SDS011;1512;51.486;6.610;2023-01-19T11:51:09;15.57;;;12.17;;
3004;SDS011;1512;51.486;6.610;2023-01-19T11:59:48;21.77;;;12.57;;
3004;SDS011;1512;51.486;6.610;2023-01-19T12:08:22;31.60;;;11.60;;
3004;SDS011;1512;51.486;6.610;2023-01-19T12:12:33;19.03;;;11.67;;
3004;SDS011;1512;51.486;6.610;2023-01-19T12:16:46;22.17;;;12.10;;
3004;SDS011;1512;51.486;6.610;2023-01-19T12:20:56;23.87;;;12.70;;
3004;SDS011;1512;51.486;6.610;2023-01-19T12:29:36;21.33;;;10.93;;
3004;SDS011;1512;51.486;6.610;2023-01-19T12:33:47;26.63;;;12.47;;
3004;SDS011;1512;51.486;6.610;2023-01-19T12:37:56;18.53;;;11.47;;
3004;SDS011;1512;51.486;6.610;2023-01-19T12:42:14;22.33;;;13.40;;
3004;SDS011;1512;51.486;6.610;2023-01-19T12:50:37;14.97;;;9.87;;
3004;SDS011;1512;51.486;6.610;2023-01-19T12:54:51;25.67;;;14.93;;
3004;SDS011;1512;51.486;6.610;2023-01-19T12:59:01;23.33;;;13.40;;
3004;SDS011;1512;51.486;6.610;2023-01-19T13:07:28;17.93;;;11.77;;
3004;SDS011;1512;51.486;6.610;2023-01-19T13:11:47;21.23;;;13.00;;
3004;SDS011;1512;51.486;6.610;2023-01-19T13:15:50;22.80;;;13.53;;
3004;SDS011;1512;51.486;6.610;2023-01-19T13:20:16;21.97;;;14.60;;
3004;SDS011;1512;51.486;6.610;2023-01-19T13:24:16;31.17;;;13.10;;
3004;SDS011;1512;51.486;6.610;2023-01-19T13:28:41;15.37;;;10.63;;
3004;SDS011;1512;51.486;6.610;2023-01-19T13:32:47;17.77;;;10.10;;
3004;SDS011;1512;51.486;6.610;2023-01-19T13:36:56;14.77;;;9.97;;
3004;SDS011;1512;51.486;6.610;2023-01-19T13:41:05;15.67;;;10.33;;
3004;SDS011;1512;51.486;6.610;2023-01-19T13:45:16;15.40;;;9.97;;
3004;SDS011;1512;51.486;6.610;2023-01-19T13:49:28;14.83;;;9.70;;
3004;SDS011;1512;51.486;6.610;2023-01-19T13:53:39;12.80;;;9.63;;
3004;SDS011;1512;51.486;6.610;2023-01-19T13:57:49;18.77;;;10.43;;
3004;SDS011;1512;51.486;6.610;2023-01-19T14:02:02;15.53;;;10.07;;
3004;SDS011;1512;51.486;6.610;2023-01-19T14:06:19;15.97;;;10.03;;
3004;SDS011;1512;51.486;6.610;2023-01-19T14:10:23;23.20;;;8.23;;
3004;SDS011;1512;51.486;6.610;2023-01-19T14:14:32;19.60;;;9.93;;
3004;SDS011;1512;51.486;6.610;2023-01-19T14:18:40;19.00;;;9.43;;
3004;SDS011;1512;51.486;6.610;2023-01-19T14:22:49;15.50;;;10.73;;
3004;SDS011;1512;51.486;6.610;2023-01-19T14:27:15;30.07;;;11.00;;
3004;SDS011;1512;51.486;6.610;2023-01-19T14:31:30;19.33;;;10.43;;
3004;SDS011;1512;51.486;6.610;2023-01-19T14:35:39;21.20;;;9.30;;
3004;SDS011;1512;51.486;6.610;2023-01-19T14:39:57;19.03;;;10.00;;
3004;SDS011;1512;51.486;6.610;2023-01-19T14:48:44;14.03;;;9.73;;
3004;SDS011;1512;51.486;6.610;2023-01-19T14:53:11;12.47;;;9.70;;
3004;SDS011;1512;51.486;6.610;2023-01-19T14:57:35;13.50;;;8.00;;
3004;SDS011;1512;51.486;6.610;2023-01-19T15:01:44;10.77;;;8.93;;
3004;SDS011;1512;51.486;6.610;2023-01-19T15:05:52;12.70;;;8.60;;
3004;SDS011;1512;51.486;6.610;2023-01-19T15:10:03;20.93;;;9.93;;
3004;SDS011;1512;51.486;6.610;2023-01-19T15:14:12;22.10;;;11.43;;
3004;SDS011;1512;51.486;6.610;2023-01-19T15:18:22;13.67;;;9.30;;
3004;SDS011;1512;51.486;6.610;2023-01-19T15:22:33;14.10;;;8.30;;
3004;SDS011;1512;51.486;6.610;2023-01-19T15:26:41;13.53;;;9.00;;
3004;SDS011;1512;51.486;6.610;2023-01-19T15:30:50;15.70;;;9.03;;
3004;SDS011;1512;51.486;6.610;2023-01-19T15:35:01;13.70;;;8.90;;
3004;SDS011;1512;51.486;6.610;2023-01-19T15:48:07;13.50;;;7.93;;
3004;SDS011;1512;51.486;6.610;2023-01-19T15:52:17;11.67;;;8.10;;
3004;SDS011;1512;51.486;6.610;2023-01-19T15:56:27;11.97;;;8.70;;
3004;SDS011;1512;51.486;6.610;2023-01-19T16:05:05;12.37;;;7.83;;
3004;SDS011;1512;51.486;6.610;2023-01-19T16:09:36;18.70;;;8.40;;
3004;SDS011;1512;51.486;6.610;2023-01-19T16:13:46;21.00;;;9.70;;
3004;SDS011;1512;51.486;6.610;2023-01-19T16:17:54;13.00;;;8.60;;
3004;SDS011;1512;51.486;6.610;2023-01-19T16:22:04;12.13;;;7.63;;
3004;SDS011;1512;51.486;6.610;2023-01-19T16:26:29;14.80;;;10.50;;
3004;SDS011;1512;51.486;6.610;2023-01-19T16:30:40;9.10;;;7.00;;
3004;SDS011;1512;51.486;6.610;2023-01-19T16:34:49;20.13;;;9.17;;
3004;SDS011;1512;51.486;6.610;2023-01-19T16:39:02;20.40;;;10.47;;
3004;SDS011;1512;51.486;6.610;2023-01-19T16:43:12;14.60;;;8.90;;
3004;SDS011;1512;51.486;6.610;2023-01-19T16:47:21;19.23;;;8.10;;
3004;SDS011;1512;51.486;6.610;2023-01-19T16:51:30;11.23;;;8.33;;
3004;SDS011;1512;51.486;6.610;2023-01-19T16:55:40;16.03;;;9.27;;
3004;SDS011;1512;51.486;6.610;2023-01-19T16:59:48;13.97;;;9.80;;
3004;SDS011;1512;51.486;6.610;2023-01-19T17:03:57;25.80;;;8.73;;
3004;SDS011;1512;51.486;6.610;2023-01-19T17:08:06;14.97;;;9.00;;
3004;SDS011;1512;51.486;6.610;2023-01-19T17:16:37;15.90;;;9.90;;
3004;SDS011;1512;51.486;6.610;2023-01-19T17:20:46;21.62;;;10.60;;
3004;SDS011;1512;51.486;6.610;2023-01-19T17:24:55;24.57;;;15.37;;
3004;SDS011;1512;51.486;6.610;2023-01-19T17:29:04;18.13;;;10.23;;
3004;SDS011;1512;51.486;6.610;2023-01-19T17:33:14;14.03;;;8.88;;
3004;SDS011;1512;51.486;6.610;2023-01-19T17:37:23;16.67;;;11.03;;
3004;SDS011;1512;51.486;6.610;2023-01-19T17:41:33;18.83;;;9.90;;
3004;SDS011;1512;51.486;6.610;2023-01-19T17:50:10;25.37;;;12.13;;
3004;SDS011;1512;51.486;6.610;2023-01-19T17:54:19;21.30;;;12.20;;
3004;SDS011;1512;51.486;6.610;2023-01-19T18:02:56;22.83;;;12.10;;
3004;SDS011;1512;51.486;6.610;2023-01-19T18:07:05;20.60;;;11.27;;
3004;SDS011;1512;51.486;6.610;2023-01-19T18:11:14;18.67;;;11.17;;
3004;SDS011;1512;51.486;6.610;2023-01-19T18:15:25;18.90;;;9.73;;
3004;SDS011;1512;51.486;6.610;2023-01-19T18:19:34;20.73;;;10.07;;
3004;SDS011;1512;51.486;6.610;2023-01-19T18:23:42;17.50;;;10.87;;
3004;SDS011;1512;51.486;6.610;2023-01-19T18:27:51;24.10;;;11.60;;
3004;SDS011;1512;51.486;6.610;2023-01-19T18:32:00;19.80;;;11.50;;
3004;SDS011;1512;51.486;6.610;2023-01-19T18:36:09;18.07;;;11.00;;
3004;SDS011;1512;51.486;6.610;2023-01-19T18:40:17;15.10;;;11.53;;
3004;SDS011;1512;51.486;6.610;2023-01-19T18:44:26;15.50;;;10.33;;
3004;SDS011;1512;51.486;6.610;2023-01-19T18:48:35;21.23;;;11.77;;
3004;SDS011;1512;51.486;6.610;2023-01-19T18:52:45;26.20;;;12.57;;
3004;SDS011;1512;51.486;6.610;2023-01-19T18:56:54;21.10;;;12.40;;
3004;SDS011;1512;51.486;6.610;2023-01-19T19:01:03;20.50;;;12.03;;
3004;SDS011;1512;51.486;6.610;2023-01-19T19:05:13;17.60;;;10.30;;
3004;SDS011;1512;51.486;6.610;2023-01-19T19:09:22;21.17;;;12.10;;
3004;SDS011;1512;51.486;6.610;2023-01-19T19:13:31;27.20;;;12.33;;
3004;SDS011;1512;51.486;6.610;2023-01-19T19:17:39;17.50;;;12.40;;
3004;SDS011;1512;51.486;6.610;2023-01-19T19:21:48;17.23;;;10.97;;
3004;SDS011;1512;51.486;6.610;2023-01-19T19:26:02;19.37;;;10.03;;
3004;SDS011;1512;51.486;6.610;2023-01-19T19:30:12;16.30;;;11.30;;
3004;SDS011;1512;51.486;6.610;2023-01-19T19:38:49;20.27;;;12.23;;
3004;SDS011;1512;51.486;6.610;2023-01-19T19:42:58;28.80;;;14.03;;
3004;SDS011;1512;51.486;6.610;2023-01-19T19:47:07;24.00;;;11.37;;
3004;SDS011;1512;51.486;6.610;2023-01-19T19:51:17;19.37;;;11.90;;
3004;SDS011;1512;51.486;6.610;2023-01-19T19:55:31;25.60;;;13.80;;
3004;SDS011;1512;51.486;6.610;2023-01-19T19:59:39;23.80;;;14.20;;
3004;SDS011;1512;51.486;6.610;2023-01-19T20:03:48;27.67;;;17.10;;
3004;SDS011;1512;51.486;6.610;2023-01-19T20:07:57;23.43;;;12.70;;
3004;SDS011;1512;51.486;6.610;2023-01-19T20:12:06;16.90;;;11.03;;
3004;SDS011;1512;51.486;6.610;2023-01-19T20:16:16;19.60;;;11.17;;
3004;SDS011;1512;51.486;6.610;2023-01-19T20:20:26;12.57;;;10.20;;
3004;SDS011;1512;51.486;6.610;2023-01-19T20:24:35;19.47;;;12.57;;
3004;SDS011;1512;51.486;6.610;2023-01-19T20:28:44;21.10;;;10.80;;
3004;SDS011;1512;51.486;6.610;2023-01-19T20:32:53;17.20;;;12.07;;
3004;SDS011;1512;51.486;6.610;2023-01-19T20:37:02;13.00;;;10.70;;
3004;SDS011;1512;51.486;6.610;2023-01-19T20:41:11;21.90;;;11.90;;
3004;SDS011;1512;51.486;6.610;2023-01-19T20:45:20;16.27;;;11.10;;
3004;SDS011;1512;51.486;6.610;2023-01-19T20:49:29;16.40;;;10.60;;
3004;SDS011;1512;51.486;6.610;2023-01-19T20:53:38;19.17;;;11.03;;
3004;SDS011;1512;51.486;6.610;2023-01-19T20:57:47;23.77;;;11.03;;
3004;SDS011;1512;51.486;6.610;2023-01-19T21:01:56;19.90;;;11.47;;
3004;SDS011;1512;51.486;6.610;2023-01-19T21:06:05;14.90;;;10.47;;
3004;SDS011;1512;51.486;6.610;2023-01-19T21:10:14;16.07;;;11.03;;
3004;SDS011;1512;51.486;6.610;2023-01-19T21:14:23;22.77;;;13.43;;
3004;SDS011;1512;51.486;6.610;2023-01-19T21:18:32;24.17;;;11.20;;
3004;SDS011;1512;51.486;6.610;2023-01-19T21:22:41;22.60;;;11.57;;
3004;SDS011;1512;51.486;6.610;2023-01-19T21:26:49;13.70;;;10.03;;
3004;SDS011;1512;51.486;6.610;2023-01-19T21:31:03;15.27;;;10.60;;
3004;SDS011;1512;51.486;6.610;2023-01-19T21:40:00;23.57;;;12.10;;
3004;SDS011;1512;51.486;6.610;2023-01-19T21:44:10;18.90;;;12.40;;
3004;SDS011;1512;51.486;6.610;2023-01-19T21:48:19;16.00;;;10.50;;
3004;SDS011;1512;51.486;6.610;2023-01-19T22:05:53;15.23;;;10.77;;
3004;SDS011;1512;51.486;6.610;2023-01-19T22:10:02;17.03;;;10.90;;
3004;SDS011;1512;51.486;6.610;2023-01-19T22:14:11;15.87;;;10.90;;
3004;SDS011;1512;51.486;6.610;2023-01-19T22:18:20;16.53;;;11.20;;
3004;SDS011;1512;51.486;6.610;2023-01-19T22:22:30;20.57;;;10.80;;
3004;SDS011;1512;51.486;6.610;2023-01-19T22:26:39;19.77;;;13.17;;
3004;SDS011;1512;51.486;6.610;2023-01-19T22:30:48;18.63;;;11.83;;
3004;SDS011;1512;51.486;6.610;2023-01-19T22:34:57;26.13;;;14.83;;
3004;SDS011;1512;51.486;6.610;2023-01-19T22:39:10;24.23;;;14.43;;
3004;SDS011;1512;51.486;6.610;2023-01-19T22:43:17;16.73;;;11.47;;
3004;SDS011;1512;51.486;6.610;2023-01-19T22:47:25;17.30;;;10.83;;
3004;SDS011;1512;51.486;6.610;2023-01-19T22:51:34;26.23;;;12.47;;
3004;SDS011;1512;51.486;6.610;2023-01-19T22:55:43;21.97;;;11.60;;
3004;SDS011;1512;51.486;6.610;2023-01-19T22:59:51;35.33;;;16.57;;
3004;SDS011;1512;51.486;6.610;2023-01-19T23:04:00;40.57;;;20.00;;
3004;SDS011;1512;51.486;6.610;2023-01-19T23:12:38;25.10;;;14.93;;
3004;SDS011;1512;51.486;6.610;2023-01-19T23:21:16;22.10;;;12.30;;
3004;SDS011;1512;51.486;6.610;2023-01-19T23:25:26;16.00;;;11.57;;
3004;SDS011;1512;51.486;6.610;2023-01-19T23:29:35;21.43;;;13.93;;
3004;SDS011;1512;51.486;6.610;2023-01-19T23:33:43;18.40;;;12.30;;
3004;SDS011;1512;51.486;6.610;2023-01-19T23:37:52;16.43;;;10.90;;
3004;SDS011;1512;51.486;6.610;2023-01-19T23:42:01;28.97;;;14.80;;
3004;SDS011;1512;51.486;6.610;2023-01-19T23:46:11;19.03;;;11.10;;
3004;SDS011;1512;51.486;6.610;2023-01-19T23:50:21;28.80;;;12.77;;
3004;SDS011;1512;51.486;6.610;2023-01-19T23:54:30;25.53;;;11.27;;
3004;SDS011;1512;51.486;6.610;2023-01-19T23:58:40;25.97;;;12.80;;
